createdAt,value
2018-10-19T00:00:51.952Z,12.50
2018-10-19T00:03:21.413Z,13.83
2018-10-19T00:05:50.540Z,12.80
2018-10-19T00:08:19.645Z,12.10
2018-10-19T00:10:48.863Z,12.00
2018-10-19T00:13:17.982Z,12.10
2018-10-19T00:15:47.075Z,12.40
2018-10-19T00:18:16.288Z,13.33
2018-10-19T00:20:45.601Z,12.93
2018-10-19T00:23:14.880Z,12.80
2018-10-19T00:25:44.225Z,12.63
2018-10-19T00:28:13.306Z,13.57
2018-10-19T00:30:42.598Z,13.13
2018-10-19T00:33:11.733Z,12.63
2018-10-19T00:35:41.215Z,12.00
2018-10-19T00:38:10.377Z,12.60
2018-10-19T00:40:39.512Z,12.17
2018-10-19T00:43:09.028Z,13.30
2018-10-19T00:45:43.441Z,12.43
2018-10-19T00:48:15.859Z,9.90
2018-10-19T00:50:45.427Z,10.27
2018-10-19T00:53:14.962Z,11.40
2018-10-19T00:55:44.013Z,11.83
2018-10-19T00:58:13.160Z,11.17
2018-10-19T01:00:43.274Z,11.53
2018-10-19T01:03:12.474Z,11.57
2018-10-19T01:05:42.316Z,11.43
2018-10-19T01:08:11.630Z,11.50
2018-10-19T01:10:40.882Z,12.27
2018-10-19T01:13:10.054Z,11.73
2018-10-19T01:15:39.278Z,11.67
2018-10-19T01:18:08.383Z,11.17
2018-10-19T01:20:37.804Z,11.70
2018-10-19T01:23:06.949Z,12.17
2018-10-19T01:25:40.644Z,11.60
2018-10-19T01:28:10.334Z,11.83
2018-10-19T01:30:39.488Z,11.43
2018-10-19T01:33:08.696Z,11.67
2018-10-19T01:35:37.767Z,11.30
2018-10-19T01:38:07.692Z,11.03
2018-10-19T01:40:37.354Z,11.53
2018-10-19T01:43:06.746Z,10.93
2018-10-19T01:45:36.043Z,11.20
2018-10-19T01:48:05.290Z,9.80
2018-10-19T01:50:34.486Z,9.50
2018-10-19T01:53:03.665Z,10.30
2018-10-19T01:55:33.374Z,10.97
2018-10-19T01:58:02.511Z,10.50
2018-10-19T02:00:31.653Z,10.97
2018-10-19T02:03:00.916Z,10.33
2018-10-19T02:05:30.279Z,10.50
2018-10-19T02:07:59.509Z,9.93
2018-10-19T02:10:29.020Z,10.00
2018-10-19T02:12:58.602Z,9.90
2018-10-19T02:15:27.771Z,10.50
2018-10-19T02:17:56.969Z,10.07
2018-10-19T02:20:26.412Z,11.33
2018-10-19T02:22:55.490Z,10.07
2018-10-19T02:25:24.941Z,9.93
2018-10-19T02:27:54.039Z,9.93
2018-10-19T02:30:23.529Z,10.93
2018-10-19T02:32:52.757Z,11.03
2018-10-19T02:35:21.882Z,11.20
2018-10-19T02:37:51.084Z,9.73
2018-10-19T02:40:20.545Z,9.73
2018-10-19T02:42:49.840Z,9.43
2018-10-19T02:45:19.020Z,8.67
2018-10-19T02:47:48.479Z,9.77
2018-10-19T02:50:17.585Z,9.23
2018-10-19T02:52:46.655Z,8.83
2018-10-19T02:55:16.332Z,9.50
2018-10-19T02:57:45.361Z,8.63
2018-10-19T03:00:14.480Z,8.83
2018-10-19T03:02:43.558Z,8.37
2018-10-19T03:05:12.650Z,8.57
2018-10-19T03:07:41.776Z,9.33
2018-10-19T03:10:11.174Z,9.77
2018-10-19T03:12:40.270Z,9.23
2018-10-19T03:15:10.221Z,9.27
2018-10-19T03:17:39.282Z,9.60
2018-10-19T03:20:09.213Z,9.27
2018-10-19T03:22:38.710Z,9.33
2018-10-19T03:25:08.751Z,9.50
2018-10-19T03:27:38.177Z,9.13
2018-10-19T03:30:08.572Z,9.23
2018-10-19T03:32:37.795Z,9.70
2018-10-19T03:35:07.676Z,9.70
2018-10-19T03:37:37.637Z,9.87
2018-10-19T03:40:07.534Z,9.67
2018-10-19T03:42:36.678Z,9.47
2018-10-19T03:45:06.175Z,9.67
2018-10-19T03:47:35.372Z,9.57
2018-10-19T03:50:04.637Z,9.17
2018-10-19T03:52:33.913Z,9.87
2018-10-19T03:55:03.036Z,9.67
2018-10-19T03:57:32.279Z,10.17
2018-10-19T04:00:01.566Z,9.33
2018-10-19T04:02:30.705Z,9.33
2018-10-19T04:04:59.849Z,8.90
2018-10-19T04:07:28.923Z,10.40
2018-10-19T04:09:58.053Z,9.60
2018-10-19T04:12:27.148Z,9.10
2018-10-19T04:14:56.236Z,8.80
2018-10-19T04:17:25.298Z,9.00
2018-10-19T04:19:54.456Z,9.80
2018-10-19T04:22:23.545Z,9.90
2018-10-19T04:24:52.710Z,9.50
2018-10-19T04:27:22.228Z,10.50
2018-10-19T04:29:51.320Z,9.20
2018-10-19T04:32:20.567Z,11.50
2018-10-19T04:34:49.734Z,10.77
2018-10-19T04:37:19.170Z,10.57
2018-10-19T04:39:48.285Z,10.27
2018-10-19T04:42:17.455Z,10.07
2018-10-19T04:44:46.691Z,10.13
2018-10-19T04:47:16.188Z,10.77
2018-10-19T04:49:45.541Z,10.27
2018-10-19T04:52:14.758Z,9.90
2018-10-19T04:54:44.251Z,10.57
2018-10-19T04:57:13.522Z,10.00
2018-10-19T04:59:42.726Z,10.60
2018-10-19T05:02:12.366Z,11.83
2018-10-19T05:04:41.826Z,11.33
2018-10-19T05:07:11.776Z,11.07
2018-10-19T05:09:42.111Z,11.80
2018-10-19T05:12:11.234Z,11.53
2018-10-19T05:14:40.752Z,11.67
2018-10-19T05:17:10.357Z,12.57
2018-10-19T05:19:39.713Z,10.80
2018-10-19T05:22:09.561Z,10.53
2018-10-19T05:24:38.810Z,11.13
2018-10-19T05:27:08.861Z,11.63
2018-10-19T05:29:38.019Z,11.47
2018-10-19T05:32:07.210Z,11.37
2018-10-19T05:34:36.598Z,11.47
2018-10-19T05:37:05.832Z,11.40
2018-10-19T05:39:35.049Z,11.73
2018-10-19T05:42:04.325Z,11.03
2018-10-19T05:44:33.382Z,11.20
2018-10-19T05:47:02.599Z,10.90
2018-10-19T05:49:31.658Z,11.63
2018-10-19T05:52:00.791Z,13.23
2018-10-19T05:54:30.143Z,14.50
2018-10-19T05:56:59.151Z,11.80
2018-10-19T05:59:29.815Z,14.53
2018-10-19T06:01:59.449Z,14.00
2018-10-19T06:04:30.523Z,13.53
2018-10-19T06:07:00.396Z,14.00
2018-10-19T06:09:37.446Z,12.87
2018-10-19T06:12:07.880Z,12.17
2018-10-19T06:14:39.514Z,12.40
2018-10-19T06:17:09.375Z,12.30
2018-10-19T06:19:42.052Z,13.20
2018-10-19T06:22:11.356Z,11.60
2018-10-19T06:24:40.727Z,13.23
2018-10-19T06:27:10.779Z,12.20
2018-10-19T06:29:40.160Z,12.47
2018-10-19T06:32:16.555Z,12.70
2018-10-19T06:34:46.868Z,12.83
2018-10-19T06:37:16.225Z,12.60
2018-10-19T06:39:46.742Z,12.93
2018-10-19T06:42:16.502Z,14.57
2018-10-19T06:44:45.594Z,14.40
2018-10-19T06:47:14.831Z,14.70
2018-10-19T06:49:44.099Z,13.50
2018-10-19T06:52:13.367Z,14.70
2018-10-19T06:54:42.581Z,14.93
2018-10-19T06:57:11.713Z,14.53
2018-10-19T06:59:40.674Z,14.77
2018-10-19T07:02:09.803Z,14.50
2018-10-19T07:04:39.191Z,14.77
2018-10-19T07:07:08.264Z,11.13
2018-10-19T07:09:37.239Z,14.30
2018-10-19T07:12:06.835Z,14.70
2018-10-19T07:14:35.810Z,13.50
2018-10-19T07:17:04.934Z,13.00
2018-10-19T07:19:34.219Z,13.67
2018-10-19T07:22:05.017Z,14.30
2018-10-19T07:24:34.095Z,15.07
2018-10-19T07:27:03.180Z,13.13
2018-10-19T07:29:32.398Z,14.23
2018-10-19T07:32:01.465Z,12.87
2018-10-19T07:34:30.923Z,12.93
2018-10-19T07:37:00.279Z,13.10
2018-10-19T07:39:29.315Z,12.43
2018-10-19T07:41:58.830Z,11.93
2018-10-19T07:44:27.963Z,13.23
2018-10-19T07:46:57.106Z,13.93
2018-10-19T07:49:26.203Z,13.10
2018-10-19T07:51:55.361Z,14.53
2018-10-19T07:54:24.684Z,15.67
2018-10-19T07:56:54.017Z,15.70
2018-10-19T07:59:23.220Z,15.40
2018-10-19T08:01:52.324Z,15.47
2018-10-19T08:04:21.384Z,15.87
2018-10-19T08:06:50.469Z,15.07
2018-10-19T08:09:19.497Z,16.33
2018-10-19T08:11:48.594Z,15.23
2018-10-19T08:14:17.709Z,15.73
2018-10-19T08:16:46.789Z,15.77
2018-10-19T08:19:16.186Z,15.40
2018-10-19T08:21:45.255Z,14.47
2018-10-19T08:24:14.375Z,14.67
2018-10-19T08:26:43.459Z,14.43
2018-10-19T08:29:12.548Z,14.37
2018-10-19T08:31:41.680Z,14.50
2018-10-19T08:34:11.117Z,14.13
2018-10-19T08:36:40.300Z,14.50
2018-10-19T08:39:09.527Z,13.77
2018-10-19T08:41:38.992Z,13.47
2018-10-19T08:44:08.087Z,12.93
2018-10-19T08:46:40.463Z,13.57
2018-10-19T08:49:11.832Z,12.97
2018-10-19T08:51:41.998Z,13.70
2018-10-19T08:54:11.346Z,12.97
2018-10-19T08:56:40.856Z,12.50
2018-10-19T08:59:10.112Z,11.13
2018-10-19T09:01:39.122Z,12.00
2018-10-19T09:04:08.241Z,12.53
2018-10-19T09:06:37.693Z,13.23
2018-10-19T09:09:09.799Z,12.50
2018-10-19T09:11:39.317Z,12.70
2018-10-19T09:14:19.285Z,13.27
2018-10-19T09:16:48.828Z,12.90
2018-10-19T09:19:18.221Z,12.20
2018-10-19T09:21:47.369Z,12.03
2018-10-19T09:24:16.852Z,12.93
2018-10-19T09:26:46.011Z,12.37
2018-10-19T09:29:15.865Z,12.23
2018-10-19T09:31:45.138Z,12.90
2018-10-19T09:34:14.247Z,11.80
2018-10-19T09:36:43.390Z,12.77
2018-10-19T09:39:14.240Z,11.70
2018-10-19T09:41:43.654Z,12.10
2018-10-19T09:44:12.724Z,12.37
2018-10-19T09:46:42.595Z,12.07
2018-10-19T09:49:13.757Z,12.20
2018-10-19T09:51:43.642Z,12.00
2018-10-19T09:54:13.130Z,12.33
2018-10-19T09:56:42.252Z,11.53
2018-10-19T09:59:11.782Z,11.77
2018-10-19T10:01:41.566Z,12.43
2018-10-19T10:04:10.671Z,12.30
2018-10-19T10:06:40.058Z,11.80
2018-10-19T10:09:11.353Z,11.17
2018-10-19T10:11:40.912Z,10.90
2018-10-19T10:14:10.237Z,11.40
2018-10-19T10:16:39.279Z,11.87
2018-10-19T10:19:08.901Z,11.37
2018-10-19T10:21:38.094Z,11.77
2018-10-19T10:24:07.758Z,11.60
2018-10-19T10:26:37.128Z,11.20
2018-10-19T10:29:06.663Z,11.23
2018-10-19T10:31:35.972Z,10.83
2018-10-19T10:34:05.488Z,11.47
2018-10-19T10:36:34.636Z,11.53
2018-10-19T10:39:05.132Z,11.70
2018-10-19T10:41:34.476Z,11.27
2018-10-19T10:44:04.397Z,10.83
2018-10-19T10:46:33.670Z,11.27
2018-10-19T10:49:03.154Z,11.63
2018-10-19T10:51:32.254Z,11.10
2018-10-19T10:54:01.414Z,10.97
2018-10-19T10:56:30.973Z,11.67
2018-10-19T10:59:00.017Z,11.80
2018-10-19T11:01:29.048Z,11.10
2018-10-19T11:03:58.123Z,12.10
2018-10-19T11:06:27.363Z,11.43
2018-10-19T11:08:56.444Z,11.17
2018-10-19T11:11:25.814Z,10.87
2018-10-19T11:13:54.859Z,11.07
2018-10-19T11:16:23.931Z,11.30
2018-10-19T11:18:53.157Z,10.50
2018-10-19T11:21:22.171Z,10.97
2018-10-19T11:23:51.184Z,11.13
2018-10-19T11:26:20.616Z,10.57
2018-10-19T11:28:49.729Z,11.57
2018-10-19T11:31:18.724Z,11.37
2018-10-19T11:33:47.840Z,11.53
2018-10-19T11:36:17.900Z,11.77
2018-10-19T11:38:47.025Z,12.23
2018-10-19T11:41:16.146Z,11.03
2018-10-19T11:43:45.260Z,11.20
2018-10-19T11:46:14.422Z,11.23
2018-10-19T11:48:43.639Z,11.50
2018-10-19T11:51:12.695Z,11.53
2018-10-19T11:53:41.791Z,11.37
2018-10-19T11:56:11.001Z,11.20
2018-10-19T11:58:40.095Z,11.17
2018-10-19T12:01:09.249Z,11.60
2018-10-19T12:03:38.395Z,11.00
2018-10-19T12:06:07.547Z,10.93
2018-10-19T12:08:36.629Z,10.70
2018-10-19T12:11:06.049Z,11.40
2018-10-19T12:13:35.163Z,11.93
2018-10-19T12:16:04.337Z,10.60
2018-10-19T12:18:33.765Z,10.53
2018-10-19T12:21:02.868Z,11.13
2018-10-19T12:23:31.956Z,11.33
2018-10-19T12:26:01.380Z,11.23
2018-10-19T12:28:30.534Z,10.47
2018-10-19T12:30:59.853Z,11.50
2018-10-19T12:33:29.313Z,11.80
2018-10-19T12:35:58.357Z,10.43
2018-10-19T12:38:27.418Z,11.27
2018-10-19T12:40:56.822Z,11.00
2018-10-19T12:43:25.936Z,11.00
2018-10-19T12:46:35.488Z,11.40
2018-10-19T12:49:04.709Z,10.90
2018-10-19T12:51:33.926Z,10.80
2018-10-19T12:54:03.227Z,10.83
2018-10-19T12:56:32.272Z,10.10
2018-10-19T12:59:01.340Z,10.70
2018-10-19T13:01:31.458Z,10.83
2018-10-19T13:04:01.088Z,11.37
2018-10-19T13:06:30.228Z,12.13
2018-10-19T13:08:59.694Z,11.27
2018-10-19T13:11:28.787Z,12.17
2018-10-19T13:13:57.880Z,11.33
2018-10-19T13:16:27.477Z,10.90
2018-10-19T13:18:56.617Z,11.73
2018-10-19T13:21:25.656Z,11.80
2018-10-19T13:23:55.151Z,11.97
2018-10-19T13:26:24.603Z,11.20
2018-10-19T13:28:53.875Z,10.77
2018-10-19T13:31:23.020Z,11.80
2018-10-19T13:33:52.675Z,11.67
2018-10-19T13:36:21.720Z,11.60
2018-10-19T13:38:51.120Z,11.60
2018-10-19T13:41:20.162Z,11.77
2018-10-19T13:43:49.310Z,10.90
2018-10-19T13:46:18.926Z,11.77
2018-10-19T13:48:48.045Z,11.77
2018-10-19T13:51:17.382Z,11.87
2018-10-19T13:53:46.544Z,10.73
2018-10-19T13:56:15.721Z,10.67
2018-10-19T13:58:44.844Z,11.47
2018-10-19T14:01:14.230Z,10.97
2018-10-19T14:03:43.542Z,11.37
2018-10-19T14:06:12.610Z,11.70
2018-10-19T14:08:42.086Z,10.80
2018-10-19T14:11:11.270Z,11.60
2018-10-19T14:13:40.915Z,11.27
2018-10-19T14:16:10.647Z,11.03
2018-10-19T14:18:39.744Z,10.97
2018-10-19T14:21:08.920Z,12.63
2018-10-19T14:23:38.740Z,12.17
2018-10-19T14:26:07.945Z,11.17
2018-10-19T14:28:37.045Z,11.43
2018-10-19T14:31:06.318Z,10.90
2018-10-19T14:33:35.420Z,11.00
2018-10-19T14:36:04.559Z,11.73
2018-10-19T14:38:33.739Z,11.50
2018-10-19T14:41:02.853Z,11.80
2018-10-19T14:43:31.991Z,11.87
2018-10-19T14:46:01.085Z,11.57
2018-10-19T14:48:31.127Z,11.50
2018-10-19T14:51:00.224Z,11.67
2018-10-19T14:53:29.297Z,11.10
2018-10-19T14:55:58.338Z,11.53
2018-10-19T14:58:27.410Z,11.80
2018-10-19T15:00:57.027Z,12.77
2018-10-19T15:03:26.285Z,14.70
2018-10-19T15:05:55.388Z,13.97
2018-10-19T15:08:24.566Z,13.73
2018-10-19T15:10:53.790Z,13.20
2018-10-19T15:13:22.752Z,12.77
2018-10-19T15:15:51.915Z,12.97
2018-10-19T15:18:21.084Z,12.97
2018-10-19T15:20:50.097Z,13.57
2018-10-19T15:23:19.424Z,13.27
2018-10-19T15:25:48.465Z,13.03
2018-10-19T15:28:17.536Z,13.17
2018-10-19T15:30:46.866Z,11.97
2018-10-19T15:33:16.064Z,13.07
2018-10-19T15:35:45.132Z,11.63
2018-10-19T15:38:14.208Z,14.07
2018-10-19T15:40:43.443Z,13.40
2018-10-19T15:43:12.573Z,13.07
2018-10-19T15:45:41.955Z,13.83
2018-10-19T15:48:11.027Z,13.33
2018-10-19T15:50:40.115Z,14.67
2018-10-19T15:53:09.543Z,17.37
2018-10-19T15:55:38.594Z,15.97
2018-10-19T15:58:07.757Z,15.10
2018-10-19T16:00:37.252Z,14.27
2018-10-19T16:03:06.421Z,12.80
2018-10-19T16:05:42.402Z,12.23
2018-10-19T16:08:11.446Z,12.40
2018-10-19T16:10:40.535Z,12.07
2018-10-19T16:13:09.871Z,12.37
2018-10-19T16:15:38.980Z,12.17
2018-10-19T16:18:08.146Z,11.47
2018-10-19T16:20:37.329Z,12.70
2018-10-19T16:23:06.757Z,11.80
2018-10-19T16:25:35.790Z,11.53
2018-10-19T16:28:05.169Z,11.93
2018-10-19T16:30:34.347Z,11.27
2018-10-19T16:33:03.443Z,12.73
2018-10-19T16:35:32.831Z,11.50
2018-10-19T16:38:01.955Z,12.03
2018-10-19T16:40:31.013Z,11.80
2018-10-19T16:43:00.196Z,11.53
2018-10-19T16:45:29.255Z,13.10
2018-10-19T16:47:58.695Z,13.50
2018-10-19T16:50:27.867Z,13.33
2018-10-19T16:52:57.022Z,12.57
2018-10-19T16:55:26.131Z,12.93
2018-10-19T17:00:39.972Z,11.37
2018-10-19T17:03:09.132Z,11.23
2018-10-19T17:05:38.185Z,12.57
2018-10-19T17:08:07.393Z,12.20
2018-10-19T17:10:36.492Z,13.17
2018-10-19T17:13:05.791Z,12.93
2018-10-19T17:15:34.928Z,12.83
2018-10-19T17:18:04.056Z,13.07
2018-10-19T17:20:33.102Z,13.13
2018-10-19T17:23:02.167Z,14.10
2018-10-19T17:25:31.215Z,14.37
2018-10-19T17:28:00.277Z,14.13
2018-10-19T17:30:29.741Z,13.20
2018-10-19T17:32:58.969Z,14.07
2018-10-19T17:35:28.204Z,12.73
2018-10-19T17:37:57.288Z,12.83
2018-10-19T17:40:26.305Z,13.20
2018-10-19T17:42:55.524Z,13.43
2018-10-19T17:45:24.671Z,15.83
2018-10-19T17:47:53.821Z,16.07
2018-10-19T17:50:22.938Z,16.90
2018-10-19T17:52:51.989Z,14.97
2018-10-19T17:55:21.053Z,14.37
2018-10-19T17:57:50.105Z,15.20
2018-10-19T18:00:19.245Z,15.07
2018-10-19T18:02:48.433Z,14.80
2018-10-19T18:05:17.500Z,14.10
2018-10-19T18:07:46.846Z,14.83
2018-10-19T18:10:15.920Z,14.47
2018-10-19T18:12:44.951Z,12.47
2018-10-19T18:15:14.402Z,13.13
2018-10-19T18:17:43.437Z,12.97
2018-10-19T18:20:12.489Z,12.53
2018-10-19T18:22:41.595Z,12.73
2018-10-19T18:25:10.701Z,13.07
2018-10-19T18:27:39.737Z,13.10
2018-10-19T18:30:09.370Z,11.43
2018-10-19T18:32:39.086Z,11.50
2018-10-19T18:35:09.906Z,11.63
2018-10-19T18:37:39.060Z,11.60
2018-10-19T18:40:10.754Z,12.03
2018-10-19T18:42:39.787Z,13.47
2018-10-19T18:45:09.559Z,12.97
2018-10-19T18:47:39.180Z,12.30
2018-10-19T18:50:09.010Z,12.50
2018-10-19T18:52:38.528Z,12.73
2018-10-19T18:55:07.656Z,13.23
2018-10-19T18:57:36.758Z,12.83
2018-10-19T19:00:07.089Z,12.73
2018-10-19T19:02:36.299Z,13.87
2018-10-19T19:05:05.568Z,14.67
2018-10-19T19:07:35.097Z,15.17
2018-10-19T19:10:09.594Z,16.70
2018-10-19T19:12:38.738Z,19.00
2018-10-19T19:15:08.323Z,17.83
2018-10-19T19:17:37.468Z,17.43
2018-10-19T19:20:12.939Z,18.60
2018-10-19T19:22:42.646Z,18.67
2018-10-19T19:25:16.769Z,17.93
2018-10-19T19:27:45.852Z,17.43
2018-10-19T19:30:15.231Z,18.10
2018-10-19T19:32:49.567Z,19.43
2018-10-19T19:35:18.638Z,17.93
2018-10-19T19:37:47.687Z,18.83
2018-10-19T19:40:16.918Z,18.30
2018-10-19T19:43:00.358Z,18.87
2018-10-19T19:45:29.778Z,19.43
2018-10-19T19:48:03.875Z,19.10
2018-10-19T19:50:33.266Z,19.07
2018-10-19T19:53:02.341Z,18.37
2018-10-19T19:55:31.355Z,20.53
2018-10-19T19:58:00.580Z,17.97
2018-10-19T20:00:29.657Z,20.03
2018-10-19T20:02:58.699Z,22.03
2018-10-19T20:05:27.840Z,19.33
2018-10-19T20:07:57.031Z,21.13
2018-10-19T20:10:26.174Z,19.03
2018-10-19T20:12:55.328Z,19.20
2018-10-19T20:15:24.420Z,18.97
2018-10-19T20:17:53.457Z,19.23
2018-10-19T20:20:22.573Z,19.97
2018-10-19T20:22:51.618Z,19.97
2018-10-19T20:25:20.696Z,21.17
2018-10-19T20:27:50.079Z,20.30
2018-10-19T20:30:19.193Z,21.57
2018-10-19T20:32:48.260Z,19.87
2018-10-19T20:35:17.482Z,21.23
2018-10-19T20:37:46.616Z,19.90
2018-10-19T20:40:15.692Z,19.97
2018-10-19T20:42:44.920Z,19.30
2018-10-19T20:45:14.021Z,17.80
2018-10-19T20:47:43.058Z,19.03
2018-10-19T20:50:12.183Z,18.90
2018-10-19T20:52:41.206Z,18.90
2018-10-19T20:55:10.291Z,18.77
2018-10-19T20:57:39.479Z,19.57
2018-10-19T21:00:09.353Z,18.13
2018-10-19T21:02:38.643Z,18.30
2018-10-19T21:05:09.552Z,18.60
2018-10-19T21:07:38.720Z,17.20
2018-10-19T21:10:10.338Z,16.70
2018-10-19T21:12:39.567Z,16.73
2018-10-19T21:15:10.891Z,17.03
2018-10-19T21:17:40.579Z,15.70
2018-10-19T21:20:10.858Z,16.10
2018-10-19T21:22:39.959Z,16.13
2018-10-19T21:25:10.814Z,15.20
2018-10-19T21:27:40.087Z,16.73
2018-10-19T21:30:10.801Z,17.20
2018-10-19T21:32:40.339Z,15.63
2018-10-19T21:35:09.608Z,16.37
2018-10-19T21:37:38.862Z,15.80
2018-10-19T21:40:08.260Z,15.07
2018-10-19T21:42:37.475Z,15.23
2018-10-19T21:45:07.434Z,13.30
2018-10-19T21:47:36.908Z,12.00
2018-10-19T21:50:07.173Z,12.93
2018-10-19T21:52:36.301Z,12.47
2018-10-19T21:55:06.176Z,12.90
2018-10-19T21:57:35.347Z,12.03
2018-10-19T22:00:04.823Z,11.63
2018-10-19T22:02:34.440Z,11.43
2018-10-19T22:05:03.717Z,11.83
2018-10-19T22:07:32.975Z,12.93
2018-10-19T22:10:02.458Z,12.73
2018-10-19T22:12:31.659Z,12.00
2018-10-19T22:15:00.909Z,12.57
2018-10-19T22:17:30.205Z,13.77
2018-10-19T22:19:59.411Z,13.87
2018-10-19T22:22:28.633Z,13.90
2018-10-19T22:24:58.243Z,14.33
2018-10-19T22:27:27.488Z,14.33
2018-10-19T22:29:56.759Z,13.50
2018-10-19T22:32:26.117Z,12.63
2018-10-19T22:34:55.313Z,13.20
2018-10-19T22:37:24.512Z,12.33
2018-10-19T22:39:54.001Z,11.23
2018-10-19T22:42:23.198Z,11.57
2018-10-19T22:44:52.462Z,10.87
2018-10-19T22:47:21.713Z,11.07
2018-10-19T22:49:50.919Z,10.83
2018-10-19T22:52:20.112Z,11.60
2018-10-19T22:54:49.718Z,10.33
2018-10-19T22:57:18.895Z,10.27
2018-10-19T22:59:48.107Z,9.90
2018-10-19T23:02:17.692Z,10.50
2018-10-19T23:04:46.839Z,10.90
2018-10-19T23:07:16.164Z,12.20
2018-10-19T23:09:45.402Z,11.13
2018-10-19T23:12:15.001Z,10.30
2018-10-19T23:14:44.217Z,11.43
2018-10-19T23:17:13.840Z,10.90
2018-10-19T23:19:42.969Z,11.30
2018-10-19T23:22:12.148Z,10.43
2018-10-19T23:24:41.372Z,11.23
2018-10-19T23:27:10.579Z,11.33
2018-10-19T23:29:39.733Z,13.97
2018-10-19T23:32:09.383Z,13.80
2018-10-19T23:34:38.796Z,12.50
2018-10-19T23:37:08.067Z,11.70
2018-10-19T23:39:37.362Z,15.43
2018-10-19T23:42:06.559Z,14.13
2018-10-19T23:44:35.681Z,14.33
2018-10-19T23:47:05.440Z,13.87
2018-10-19T23:49:34.594Z,12.57
2018-10-19T23:52:03.819Z,12.70
2018-10-19T23:54:33.040Z,11.23
2018-10-19T23:57:02.460Z,11.27
2018-10-19T23:59:31.675Z,11.63
